sensor_id;sensor_type;location;lat;lon;timestamp;pressure;altitude;pressure_sealevel;temperature
70819;BMP280;58439;51.046;13.692;2023-02-02T00:02:00;99690.91;;;3.67
70819;BMP280;58439;51.046;13.692;2023-02-02T00:04:33;99660.34;;;3.62
70819;BMP280;58439;51.046;13.692;2023-02-02T00:07:02;99683.91;;;3.59
70819;BMP280;58439;51.046;13.692;2023-02-02T00:09:31;99687.69;;;3.65
70819;BMP280;58439;51.046;13.692;2023-02-02T00:12:01;99685.22;;;3.63
70819;BMP280;58439;51.046;13.692;2023-02-02T00:14:29;99686.94;;;3.55
70819;BMP280;58439;51.046;13.692;2023-02-02T00:16:56;99672.28;;;3.63
70819;BMP280;58439;51.046;13.692;2023-02-02T00:19:26;99681.31;;;3.59
70819;BMP280;58439;51.046;13.692;2023-02-02T00:21:56;99673.44;;;3.61
70819;BMP280;58439;51.046;13.692;2023-02-02T00:24:27;99673.72;;;3.58
70819;BMP280;58439;51.046;13.692;2023-02-02T00:27:04;99666.66;;;3.68
70819;BMP280;58439;51.046;13.692;2023-02-02T00:29:31;99663.78;;;3.71
70819;BMP280;58439;51.046;13.692;2023-02-02T00:31:59;99667.13;;;3.63
70819;BMP280;58439;51.046;13.692;2023-02-02T00:34:30;99663.91;;;3.61
70819;BMP280;58439;51.046;13.692;2023-02-02T00:36:58;99673.63;;;3.67
70819;BMP280;58439;51.046;13.692;2023-02-02T00:39:25;99662.53;;;3.75
70819;BMP280;58439;51.046;13.692;2023-02-02T00:42:20;99664.31;;;3.74
70819;BMP280;58439;51.046;13.692;2023-02-02T00:44:47;99666.09;;;3.82
70819;BMP280;58439;51.046;13.692;2023-02-02T00:47:43;99663.16;;;3.77
70819;BMP280;58439;51.046;13.692;2023-02-02T00:50:19;99661.81;;;3.65
70819;BMP280;58439;51.046;13.692;2023-02-02T00:52:47;99669.88;;;3.62
70819;BMP280;58439;51.046;13.692;2023-02-02T00:55:16;99655.22;;;3.70
70819;BMP280;58439;51.046;13.692;2023-02-02T00:57:45;99657.53;;;3.56
70819;BMP280;58439;51.046;13.692;2023-02-02T01:00:15;99671.59;;;3.53
70819;BMP280;58439;51.046;13.692;2023-02-02T01:02:43;99664.03;;;3.60
70819;BMP280;58439;51.046;13.692;2023-02-02T01:05:10;99677.13;;;3.58
70819;BMP280;58439;51.046;13.692;2023-02-02T01:07:39;99670.03;;;3.60
70819;BMP280;58439;51.046;13.692;2023-02-02T01:10:11;99652.63;;;3.70
70819;BMP280;58439;51.046;13.692;2023-02-02T01:12:42;99651.53;;;3.73
70819;BMP280;58439;51.046;13.692;2023-02-02T01:15:10;99644.78;;;3.80
70819;BMP280;58439;51.046;13.692;2023-02-02T01:17:38;99659.44;;;3.79
70819;BMP280;58439;51.046;13.692;2023-02-02T01:20:07;99661.75;;;3.83
70819;BMP280;58439;51.046;13.692;2023-02-02T01:22:36;99661.88;;;3.73
70819;BMP280;58439;51.046;13.692;2023-02-02T01:25:09;99676.94;;;3.60
70819;BMP280;58439;51.046;13.692;2023-02-02T01:27:42;99675.75;;;3.72
70819;BMP280;58439;51.046;13.692;2023-02-02T01:30:16;99670.00;;;3.86
70819;BMP280;58439;51.046;13.692;2023-02-02T01:32:58;99673.09;;;3.90
70819;BMP280;58439;51.046;13.692;2023-02-02T01:35:30;99669.03;;;3.87
70819;BMP280;58439;51.046;13.692;2023-02-02T01:38:01;99673.94;;;3.98
70819;BMP280;58439;51.046;13.692;2023-02-02T01:40:32;99657.94;;;4.03
70819;BMP280;58439;51.046;13.692;2023-02-02T01:43:20;99651.53;;;4.15
70819;BMP280;58439;51.046;13.692;2023-02-02T01:45:52;99656.25;;;4.20
70819;BMP280;58439;51.046;13.692;2023-02-02T01:48:23;99661.75;;;4.25
70819;BMP280;58439;51.046;13.692;2023-02-02T01:50:59;99655.66;;;4.34
70819;BMP280;58439;51.046;13.692;2023-02-02T01:53:35;99664.84;;;4.28
70819;BMP280;58439;51.046;13.692;2023-02-02T01:56:09;99679.53;;;4.20
70819;BMP280;58439;51.046;13.692;2023-02-02T01:58:39;99659.38;;;3.97
70819;BMP280;58439;51.046;13.692;2023-02-02T02:01:08;99650.06;;;3.78
70819;BMP280;58439;51.046;13.692;2023-02-02T02:03:36;99642.47;;;3.77
70819;BMP280;58439;51.046;13.692;2023-02-02T02:06:07;99668.44;;;3.93
70819;BMP280;58439;51.046;13.692;2023-02-02T02:08:38;99653.72;;;3.94
70819;BMP280;58439;51.046;13.692;2023-02-02T02:11:06;99668.41;;;3.85
70819;BMP280;58439;51.046;13.692;2023-02-02T02:13:36;99666.50;;;3.95
70819;BMP280;58439;51.046;13.692;2023-02-02T02:17:05;99665.38;;;3.98
70819;BMP280;58439;51.046;13.692;2023-02-02T02:20:13;99665.09;;;4.09
70819;BMP280;58439;51.046;13.692;2023-02-02T02:32:06;99646.50;;;4.06
70819;BMP280;58439;51.046;13.692;2023-02-02T02:37:48;99662.72;;;4.16
70819;BMP280;58439;51.046;13.692;2023-02-02T02:43:37;99664.06;;;4.28
70819;BMP280;58439;51.046;13.692;2023-02-02T02:46:07;99661.81;;;4.33
70819;BMP280;58439;51.046;13.692;2023-02-02T02:48:36;99660.03;;;4.42
70819;BMP280;58439;51.046;13.692;2023-02-02T02:54:30;99664.41;;;4.49
70819;BMP280;58439;51.046;13.692;2023-02-02T03:00:02;99660.25;;;4.57
70819;BMP280;58439;51.046;13.692;2023-02-02T03:02:55;99666.22;;;4.57
70819;BMP280;58439;51.046;13.692;2023-02-02T03:05:32;99659.28;;;4.58
70819;BMP280;58439;51.046;13.692;2023-02-02T03:08:16;99667.03;;;4.58
70819;BMP280;58439;51.046;13.692;2023-02-02T03:10:51;99663.13;;;4.62
70819;BMP280;58439;51.046;13.692;2023-02-02T03:13:22;99681.56;;;4.59
70819;BMP280;58439;51.046;13.692;2023-02-02T03:15:49;99678.69;;;4.62
70819;BMP280;58439;51.046;13.692;2023-02-02T03:18:19;99687.94;;;4.64
70819;BMP280;58439;51.046;13.692;2023-02-02T03:24:16;99694.53;;;4.67
70819;BMP280;58439;51.046;13.692;2023-02-02T03:26:47;99686.97;;;4.73
70819;BMP280;58439;51.046;13.692;2023-02-02T03:29:18;99704.97;;;4.83
70819;BMP280;58439;51.046;13.692;2023-02-02T03:31:51;99687.13;;;4.72
70819;BMP280;58439;51.046;13.692;2023-02-02T03:34:22;99682.28;;;4.69
70819;BMP280;58439;51.046;13.692;2023-02-02T03:36:56;99688.41;;;4.60
70819;BMP280;58439;51.046;13.692;2023-02-02T03:39:31;99678.66;;;4.45
70819;BMP280;58439;51.046;13.692;2023-02-02T03:41:58;99668.50;;;4.52
70819;BMP280;58439;51.046;13.692;2023-02-02T03:44:25;99695.03;;;4.62
70819;BMP280;58439;51.046;13.692;2023-02-02T03:46:53;99699.09;;;4.65
70819;BMP280;58439;51.046;13.692;2023-02-02T03:49:20;99694.44;;;4.76
70819;BMP280;58439;51.046;13.692;2023-02-02T03:51:47;99706.72;;;4.74
70819;BMP280;58439;51.046;13.692;2023-02-02T03:54:14;99711.09;;;4.82
70819;BMP280;58439;51.046;13.692;2023-02-02T03:56:41;99701.72;;;4.73
70819;BMP280;58439;51.046;13.692;2023-02-02T03:59:08;99700.09;;;4.72
70819;BMP280;58439;51.046;13.692;2023-02-02T04:01:36;99712.56;;;4.85
70819;BMP280;58439;51.046;13.692;2023-02-02T04:04:03;99713.06;;;4.88
70819;BMP280;58439;51.046;13.692;2023-02-02T04:06:30;99658.16;;;4.85
70819;BMP280;58439;51.046;13.692;2023-02-02T04:08:58;99692.16;;;4.90
70819;BMP280;58439;51.046;13.692;2023-02-02T04:11:25;99698.31;;;4.89
70819;BMP280;58439;51.046;13.692;2023-02-02T04:13:52;99716.78;;;4.86
70819;BMP280;58439;51.046;13.692;2023-02-02T04:16:19;99701.06;;;4.79
70819;BMP280;58439;51.046;13.692;2023-02-02T04:18:46;99722.44;;;4.73
70819;BMP280;58439;51.046;13.692;2023-02-02T04:21:16;99726.00;;;4.72
70819;BMP280;58439;51.046;13.692;2023-02-02T04:23:44;99728.22;;;4.67
70819;BMP280;58439;51.046;13.692;2023-02-02T04:26:10;99731.31;;;4.70
70819;BMP280;58439;51.046;13.692;2023-02-02T04:28:38;99742.47;;;4.71
70819;BMP280;58439;51.046;13.692;2023-02-02T04:31:06;99727.91;;;4.70
70819;BMP280;58439;51.046;13.692;2023-02-02T04:33:33;99716.53;;;4.63
70819;BMP280;58439;51.046;13.692;2023-02-02T04:36:05;99725.00;;;4.65
70819;BMP280;58439;51.046;13.692;2023-02-02T04:38:32;99732.16;;;4.79
70819;BMP280;58439;51.046;13.692;2023-02-02T04:41:05;99727.41;;;4.66
70819;BMP280;58439;51.046;13.692;2023-02-02T04:43:34;99756.72;;;4.67
70819;BMP280;58439;51.046;13.692;2023-02-02T04:46:05;99742.13;;;4.66
70819;BMP280;58439;51.046;13.692;2023-02-02T04:48:32;99734.19;;;4.59
70819;BMP280;58439;51.046;13.692;2023-02-02T04:51:01;99747.56;;;4.46
70819;BMP280;58439;51.046;13.692;2023-02-02T04:53:29;99741.81;;;4.52
70819;BMP280;58439;51.046;13.692;2023-02-02T04:56:14;99739.03;;;4.54
70819;BMP280;58439;51.046;13.692;2023-02-02T04:58:42;99738.75;;;4.57
70819;BMP280;58439;51.046;13.692;2023-02-02T05:01:18;99735.00;;;4.60
70819;BMP280;58439;51.046;13.692;2023-02-02T05:03:51;99743.63;;;4.68
70819;BMP280;58439;51.046;13.692;2023-02-02T05:06:19;99741.22;;;4.83
70819;BMP280;58439;51.046;13.692;2023-02-02T05:08:47;99747.72;;;4.87
70819;BMP280;58439;51.046;13.692;2023-02-02T05:11:33;99740.75;;;4.88
70819;BMP280;58439;51.046;13.692;2023-02-02T05:14:01;99762.13;;;4.90
70819;BMP280;58439;51.046;13.692;2023-02-02T05:16:28;99771.69;;;4.97
70819;BMP280;58439;51.046;13.692;2023-02-02T05:19:04;99768.59;;;4.86
70819;BMP280;58439;51.046;13.692;2023-02-02T05:21:37;99771.34;;;4.84
70819;BMP280;58439;51.046;13.692;2023-02-02T05:24:04;99775.22;;;4.72
70819;BMP280;58439;51.046;13.692;2023-02-02T05:26:32;99790.19;;;4.52
70819;BMP280;58439;51.046;13.692;2023-02-02T05:28:59;99777.19;;;4.44
70819;BMP280;58439;51.046;13.692;2023-02-02T05:31:26;99794.56;;;4.51
70819;BMP280;58439;51.046;13.692;2023-02-02T05:34:01;99791.00;;;4.52
70819;BMP280;58439;51.046;13.692;2023-02-02T05:40:31;99789.56;;;4.66
70819;BMP280;58439;51.046;13.692;2023-02-02T05:43:00;99798.22;;;4.75
70819;BMP280;58439;51.046;13.692;2023-02-02T05:45:27;99756.09;;;4.81
70819;BMP280;58439;51.046;13.692;2023-02-02T05:47:55;99793.38;;;4.88
70819;BMP280;58439;51.046;13.692;2023-02-02T05:50:22;99798.25;;;4.99
70819;BMP280;58439;51.046;13.692;2023-02-02T05:53:01;99799.88;;;5.00
70819;BMP280;58439;51.046;13.692;2023-02-02T05:55:30;99825.47;;;4.95
70819;BMP280;58439;51.046;13.692;2023-02-02T06:02:11;99820.78;;;4.91
70819;BMP280;58439;51.046;13.692;2023-02-02T06:04:42;99813.47;;;4.94
70819;BMP280;58439;51.046;13.692;2023-02-02T06:07:15;99824.31;;;4.90
70819;BMP280;58439;51.046;13.692;2023-02-02T06:09:43;99828.56;;;4.91
70819;BMP280;58439;51.046;13.692;2023-02-02T06:12:13;99808.97;;;5.04
70819;BMP280;58439;51.046;13.692;2023-02-02T06:14:48;99842.31;;;4.99
70819;BMP280;58439;51.046;13.692;2023-02-02T06:17:17;99851.72;;;4.92
70819;BMP280;58439;51.046;13.692;2023-02-02T06:26:27;99872.69;;;4.81
70819;BMP280;58439;51.046;13.692;2023-02-02T06:28:56;99869.50;;;4.87
70819;BMP280;58439;51.046;13.692;2023-02-02T06:31:25;99872.53;;;4.82
70819;BMP280;58439;51.046;13.692;2023-02-02T06:33:56;99857.19;;;4.89
70819;BMP280;58439;51.046;13.692;2023-02-02T06:36:26;99855.88;;;4.85
70819;BMP280;58439;51.046;13.692;2023-02-02T06:38:56;99863.34;;;4.96
70819;BMP280;58439;51.046;13.692;2023-02-02T06:41:24;99864.50;;;5.02
70819;BMP280;58439;51.046;13.692;2023-02-02T06:43:54;99877.63;;;5.00
70819;BMP280;58439;51.046;13.692;2023-02-02T06:46:22;99889.59;;;4.93
70819;BMP280;58439;51.046;13.692;2023-02-02T06:48:50;99888.47;;;4.96
70819;BMP280;58439;51.046;13.692;2023-02-02T06:51:17;99886.88;;;4.95
70819;BMP280;58439;51.046;13.692;2023-02-02T06:53:49;99906.44;;;4.97
70819;BMP280;58439;51.046;13.692;2023-02-02T06:56:25;99906.59;;;4.96
70819;BMP280;58439;51.046;13.692;2023-02-02T06:58:55;99900.25;;;4.90
70819;BMP280;58439;51.046;13.692;2023-02-02T07:01:22;99898.66;;;4.89
70819;BMP280;58439;51.046;13.692;2023-02-02T07:03:49;99910.75;;;4.80
70819;BMP280;58439;51.046;13.692;2023-02-02T07:06:19;99901.19;;;4.81
70819;BMP280;58439;51.046;13.692;2023-02-02T07:08:48;99899.16;;;4.67
70819;BMP280;58439;51.046;13.692;2023-02-02T07:11:32;99907.63;;;4.77
70819;BMP280;58439;51.046;13.692;2023-02-02T07:14:09;99890.06;;;4.63
70819;BMP280;58439;51.046;13.692;2023-02-02T07:16:36;99907.91;;;4.66
70819;BMP280;58439;51.046;13.692;2023-02-02T07:19:42;99913.00;;;4.75
70819;BMP280;58439;51.046;13.692;2023-02-02T07:23:19;99926.56;;;4.77
70819;BMP280;58439;51.046;13.692;2023-02-02T07:26:06;99907.38;;;4.88
70819;BMP280;58439;51.046;13.692;2023-02-02T07:28:37;99923.00;;;5.04
70819;BMP280;58439;51.046;13.692;2023-02-02T07:31:13;99918.94;;;5.02
70819;BMP280;58439;51.046;13.692;2023-02-02T07:33:43;99917.59;;;4.98
70819;BMP280;58439;51.046;13.692;2023-02-02T07:36:12;99927.81;;;4.91
70819;BMP280;58439;51.046;13.692;2023-02-02T07:38:47;99920.00;;;4.83
70819;BMP280;58439;51.046;13.692;2023-02-02T07:41:16;99924.56;;;4.89
70819;BMP280;58439;51.046;13.692;2023-02-02T07:43:46;99938.31;;;4.90
70819;BMP280;58439;51.046;13.692;2023-02-02T07:46:15;99949.84;;;4.95
70819;BMP280;58439;51.046;13.692;2023-02-02T07:48:43;99957.97;;;5.00
70819;BMP280;58439;51.046;13.692;2023-02-02T07:51:15;99950.56;;;5.14
70819;BMP280;58439;51.046;13.692;2023-02-02T07:53:53;99960.63;;;5.08
70819;BMP280;58439;51.046;13.692;2023-02-02T07:56:24;99962.56;;;5.15
70819;BMP280;58439;51.046;13.692;2023-02-02T07:58:54;99970.69;;;5.20
70819;BMP280;58439;51.046;13.692;2023-02-02T08:01:55;99978.69;;;5.26
70819;BMP280;58439;51.046;13.692;2023-02-02T08:05:04;99975.13;;;5.27
70819;BMP280;58439;51.046;13.692;2023-02-02T08:08:45;99971.56;;;5.28
70819;BMP280;58439;51.046;13.692;2023-02-02T08:11:17;99983.44;;;5.39
70819;BMP280;58439;51.046;13.692;2023-02-02T08:14:01;99976.09;;;5.26
70819;BMP280;58439;51.046;13.692;2023-02-02T08:16:31;99987.56;;;5.24
70819;BMP280;58439;51.046;13.692;2023-02-02T08:19:39;99980.78;;;5.31
70819;BMP280;58439;51.046;13.692;2023-02-02T08:23:00;99993.41;;;5.26
70819;BMP280;58439;51.046;13.692;2023-02-02T08:25:27;99996.84;;;5.26
70819;BMP280;58439;51.046;13.692;2023-02-02T08:27:55;100001.53;;;5.31
70819;BMP280;58439;51.046;13.692;2023-02-02T08:30:31;99990.69;;;5.27
70819;BMP280;58439;51.046;13.692;2023-02-02T08:33:01;100014.16;;;5.26
70819;BMP280;58439;51.046;13.692;2023-02-02T08:35:31;100012.00;;;5.21
70819;BMP280;58439;51.046;13.692;2023-02-02T08:38:06;100005.44;;;5.27
70819;BMP280;58439;51.046;13.692;2023-02-02T08:40:38;100013.53;;;5.32
70819;BMP280;58439;51.046;13.692;2023-02-02T08:43:05;100010.63;;;5.35
70819;BMP280;58439;51.046;13.692;2023-02-02T08:45:33;100020.63;;;5.30
70819;BMP280;58439;51.046;13.692;2023-02-02T08:48:20;100023.59;;;5.35
70819;BMP280;58439;51.046;13.692;2023-02-02T08:50:55;100027.81;;;5.36
70819;BMP280;58439;51.046;13.692;2023-02-02T08:53:23;100012.81;;;5.22
70819;BMP280;58439;51.046;13.692;2023-02-02T08:58:27;100018.00;;;5.22
70819;BMP280;58439;51.046;13.692;2023-02-02T09:01:16;100035.25;;;5.31
70819;BMP280;58439;51.046;13.692;2023-02-02T09:03:45;100041.34;;;5.22
70819;BMP280;58439;51.046;13.692;2023-02-02T09:06:17;100052.16;;;5.17
70819;BMP280;58439;51.046;13.692;2023-02-02T09:08:47;100045.53;;;5.15
70819;BMP280;58439;51.046;13.692;2023-02-02T09:11:17;100050.72;;;5.15
70819;BMP280;58439;51.046;13.692;2023-02-02T09:13:48;100038.81;;;5.04
70819;BMP280;58439;51.046;13.692;2023-02-02T09:16:19;100053.63;;;5.12
70819;BMP280;58439;51.046;13.692;2023-02-02T09:18:47;100056.38;;;5.18
70819;BMP280;58439;51.046;13.692;2023-02-02T09:21:16;100047.38;;;5.22
70819;BMP280;58439;51.046;13.692;2023-02-02T09:23:45;100055.34;;;5.29
70819;BMP280;58439;51.046;13.692;2023-02-02T09:26:19;100052.41;;;5.24
70819;BMP280;58439;51.046;13.692;2023-02-02T09:28:51;100056.22;;;5.12
70819;BMP280;58439;51.046;13.692;2023-02-02T09:31:20;100068.03;;;5.14
70819;BMP280;58439;51.046;13.692;2023-02-02T09:33:47;100072.56;;;5.12
70819;BMP280;58439;51.046;13.692;2023-02-02T09:36:18;100078.00;;;5.01
70819;BMP280;58439;51.046;13.692;2023-02-02T09:38:50;100078.88;;;5.10
70819;BMP280;58439;51.046;13.692;2023-02-02T09:49:49;100096.31;;;4.99
70819;BMP280;58439;51.046;13.692;2023-02-02T09:55:09;100088.75;;;5.14
70819;BMP280;58439;51.046;13.692;2023-02-02T09:57:49;100096.88;;;5.11
70819;BMP280;58439;51.046;13.692;2023-02-02T10:00:30;100102.66;;;5.05
70819;BMP280;58439;51.046;13.692;2023-02-02T10:03:05;100117.50;;;4.95
70819;BMP280;58439;51.046;13.692;2023-02-02T10:06:12;100105.69;;;5.00
70819;BMP280;58439;51.046;13.692;2023-02-02T10:09:21;100100.78;;;5.15
70819;BMP280;58439;51.046;13.692;2023-02-02T10:19:32;100108.19;;;5.10
70819;BMP280;58439;51.046;13.692;2023-02-02T10:22:13;100111.63;;;5.11
70819;BMP280;58439;51.046;13.692;2023-02-02T10:24:56;100120.00;;;5.04
70819;BMP280;58439;51.046;13.692;2023-02-02T10:28:09;100124.88;;;5.07
70819;BMP280;58439;51.046;13.692;2023-02-02T10:34:49;100129.66;;;4.76
70819;BMP280;58439;51.046;13.692;2023-02-02T10:42:05;100119.09;;;4.78
70819;BMP280;58439;51.046;13.692;2023-02-02T10:47:22;100123.44;;;4.87
70819;BMP280;58439;51.046;13.692;2023-02-02T10:49:58;100129.56;;;4.86
70819;BMP280;58439;51.046;13.692;2023-02-02T10:52:31;100126.03;;;4.87
70819;BMP280;58439;51.046;13.692;2023-02-02T11:03:58;100138.56;;;5.44
70819;BMP280;58439;51.046;13.692;2023-02-02T11:06:55;100144.00;;;5.58
70819;BMP280;58439;51.046;13.692;2023-02-02T11:09:29;100133.28;;;5.61
70819;BMP280;58439;51.046;13.692;2023-02-02T11:12:24;100131.47;;;5.54
70819;BMP280;58439;51.046;13.692;2023-02-02T11:15:02;100133.16;;;5.63
70819;BMP280;58439;51.046;13.692;2023-02-02T11:17:31;100135.34;;;5.76
70819;BMP280;58439;51.046;13.692;2023-02-02T11:20:00;100145.72;;;5.84
70819;BMP280;58439;51.046;13.692;2023-02-02T11:25:00;100142.38;;;5.66
70819;BMP280;58439;51.046;13.692;2023-02-02T11:27:37;100145.66;;;5.68
70819;BMP280;58439;51.046;13.692;2023-02-02T11:30:23;100145.16;;;5.64
70819;BMP280;58439;51.046;13.692;2023-02-02T11:32:53;100143.88;;;5.68
70819;BMP280;58439;51.046;13.692;2023-02-02T11:35:26;100155.34;;;5.66
70819;BMP280;58439;51.046;13.692;2023-02-02T11:38:13;100164.34;;;5.79
70819;BMP280;58439;51.046;13.692;2023-02-02T11:41:32;100155.66;;;5.97
70819;BMP280;58439;51.046;13.692;2023-02-02T11:44:25;100149.00;;;8.13
70819;BMP280;58439;51.046;13.692;2023-02-02T11:47:05;100165.84;;;7.94
70819;BMP280;58439;51.046;13.692;2023-02-02T11:49:37;100160.09;;;7.59
70819;BMP280;58439;51.046;13.692;2023-02-02T11:52:21;100172.38;;;7.26
70819;BMP280;58439;51.046;13.692;2023-02-02T11:54:51;100167.22;;;7.18
70819;BMP280;58439;51.046;13.692;2023-02-02T11:57:23;100166.09;;;6.96
70819;BMP280;58439;51.046;13.692;2023-02-02T12:00:15;100162.16;;;6.76
70819;BMP280;58439;51.046;13.692;2023-02-02T12:02:45;100162.81;;;6.45
70819;BMP280;58439;51.046;13.692;2023-02-02T12:05:32;100170.34;;;6.06
70819;BMP280;58439;51.046;13.692;2023-02-02T12:07:59;100177.81;;;5.75
70819;BMP280;58439;51.046;13.692;2023-02-02T12:10:37;100164.28;;;5.63
70819;BMP280;58439;51.046;13.692;2023-02-02T12:16:27;100175.47;;;5.90
70819;BMP280;58439;51.046;13.692;2023-02-02T12:44:48;100188.38;;;6.16
70819;BMP280;58439;51.046;13.692;2023-02-02T12:48:00;100183.50;;;6.21
70819;BMP280;58439;51.046;13.692;2023-02-02T12:50:34;100186.41;;;6.09
70819;BMP280;58439;51.046;13.692;2023-02-02T12:59:36;100194.38;;;5.74
70819;BMP280;58439;51.046;13.692;2023-02-02T13:02:35;100201.63;;;5.70
70819;BMP280;58439;51.046;13.692;2023-02-02T13:05:29;100203.53;;;5.60
70819;BMP280;58439;51.046;13.692;2023-02-02T13:08:13;100203.19;;;5.63
70819;BMP280;58439;51.046;13.692;2023-02-02T13:10:46;100205.38;;;6.02
70819;BMP280;58439;51.046;13.692;2023-02-02T13:13:17;100206.31;;;7.65
70819;BMP280;58439;51.046;13.692;2023-02-02T13:15:51;100196.03;;;10.92
70819;BMP280;58439;51.046;13.692;2023-02-02T13:18:29;100218.97;;;12.13
70819;BMP280;58439;51.046;13.692;2023-02-02T13:21:02;100218.00;;;12.28
70819;BMP280;58439;51.046;13.692;2023-02-02T13:26:30;100216.94;;;9.70
70819;BMP280;58439;51.046;13.692;2023-02-02T13:32:06;100213.16;;;7.50
70819;BMP280;58439;51.046;13.692;2023-02-02T13:34:52;100223.94;;;7.06
70819;BMP280;58439;51.046;13.692;2023-02-02T13:40:33;100226.81;;;6.62
70819;BMP280;58439;51.046;13.692;2023-02-02T13:43:19;100243.03;;;6.64
70819;BMP280;58439;51.046;13.692;2023-02-02T13:46:05;100253.84;;;7.67
70819;BMP280;58439;51.046;13.692;2023-02-02T13:49:11;100254.78;;;8.22
70819;BMP280;58439;51.046;13.692;2023-02-02T13:57:53;100265.88;;;6.95
70819;BMP280;58439;51.046;13.692;2023-02-02T14:00:33;100273.28;;;6.65
70819;BMP280;58439;51.046;13.692;2023-02-02T14:03:21;100278.75;;;6.46
70819;BMP280;58439;51.046;13.692;2023-02-02T14:06:07;100286.31;;;6.31
70819;BMP280;58439;51.046;13.692;2023-02-02T14:08:53;100288.56;;;6.26
70819;BMP280;58439;51.046;13.692;2023-02-02T14:11:28;100286.94;;;6.25
70819;BMP280;58439;51.046;13.692;2023-02-02T14:14:19;100286.09;;;6.25
70819;BMP280;58439;51.046;13.692;2023-02-02T14:19:56;100284.88;;;6.37
70819;BMP280;58439;51.046;13.692;2023-02-02T14:22:44;100296.16;;;6.54
70819;BMP280;58439;51.046;13.692;2023-02-02T14:28:01;100297.78;;;6.55
70819;BMP280;58439;51.046;13.692;2023-02-02T14:30:32;100308.97;;;6.55
70819;BMP280;58439;51.046;13.692;2023-02-02T14:33:26;100308.75;;;6.49
70819;BMP280;58439;51.046;13.692;2023-02-02T14:35:57;100314.66;;;6.51
70819;BMP280;58439;51.046;13.692;2023-02-02T14:38:48;100317.56;;;6.48
70819;BMP280;58439;51.046;13.692;2023-02-02T14:41:36;100326.34;;;6.47
70819;BMP280;58439;51.046;13.692;2023-02-02T14:44:28;100333.91;;;6.40
70819;BMP280;58439;51.046;13.692;2023-02-02T14:46:56;100330.72;;;6.46
70819;BMP280;58439;51.046;13.692;2023-02-02T14:49:26;100336.97;;;6.35
70819;BMP280;58439;51.046;13.692;2023-02-02T14:52:21;100345.69;;;6.18
70819;BMP280;58439;51.046;13.692;2023-02-02T14:55:05;100338.09;;;6.07
70819;BMP280;58439;51.046;13.692;2023-02-02T14:57:42;100344.59;;;6.03
70819;BMP280;58439;51.046;13.692;2023-02-02T15:00:22;100352.84;;;5.98
70819;BMP280;58439;51.046;13.692;2023-02-02T15:02:51;100351.81;;;5.91
70819;BMP280;58439;51.046;13.692;2023-02-02T15:08:12;100365.66;;;5.74
70819;BMP280;58439;51.046;13.692;2023-02-02T15:13:16;100361.59;;;5.61
70819;BMP280;58439;51.046;13.692;2023-02-02T15:15:46;100376.06;;;5.64
70819;BMP280;58439;51.046;13.692;2023-02-02T15:18:24;100371.16;;;5.61
70819;BMP280;58439;51.046;13.692;2023-02-02T15:20:58;100378.66;;;5.46
70819;BMP280;58439;51.046;13.692;2023-02-02T15:23:30;100382.22;;;5.45
70819;BMP280;58439;51.046;13.692;2023-02-02T15:26:12;100387.41;;;5.45
70819;BMP280;58439;51.046;13.692;2023-02-02T15:28:44;100382.94;;;5.38
70819;BMP280;58439;51.046;13.692;2023-02-02T15:31:18;100392.78;;;5.34
70819;BMP280;58439;51.046;13.692;2023-02-02T15:33:51;100413.66;;;5.42
70819;BMP280;58439;51.046;13.692;2023-02-02T15:36:23;100420.16;;;5.46
70819;BMP280;58439;51.046;13.692;2023-02-02T15:38:55;100429.63;;;5.38
70819;BMP280;58439;51.046;13.692;2023-02-02T15:41:30;100417.47;;;5.20
70819;BMP280;58439;51.046;13.692;2023-02-02T15:43:59;100433.91;;;5.01
70819;BMP280;58439;51.046;13.692;2023-02-02T15:46:32;100431.13;;;4.85
70819;BMP280;58439;51.046;13.692;2023-02-02T15:52:11;100446.53;;;4.77
70819;BMP280;58439;51.046;13.692;2023-02-02T15:54:51;100455.41;;;4.84
70819;BMP280;58439;51.046;13.692;2023-02-02T15:57:26;100469.59;;;4.80
70819;BMP280;58439;51.046;13.692;2023-02-02T15:59:54;100483.50;;;4.89
70819;BMP280;58439;51.046;13.692;2023-02-02T16:02:37;100487.28;;;4.94
70819;BMP280;58439;51.046;13.692;2023-02-02T16:06:37;100495.22;;;4.83
70819;BMP280;58439;51.046;13.692;2023-02-02T16:09:05;100502.31;;;4.81
70819;BMP280;58439;51.046;13.692;2023-02-02T16:11:55;100506.44;;;4.74
70819;BMP280;58439;51.046;13.692;2023-02-02T16:24:00;100546.13;;;4.55
70819;BMP280;58439;51.046;13.692;2023-02-02T16:27:26;100576.38;;;4.54
70819;BMP280;58439;51.046;13.692;2023-02-02T16:30:29;100579.69;;;4.57
70819;BMP280;58439;51.046;13.692;2023-02-02T16:32:57;100593.44;;;4.57
70819;BMP280;58439;51.046;13.692;2023-02-02T16:35:36;100596.97;;;4.37
70819;BMP280;58439;51.046;13.692;2023-02-02T16:40:38;100600.81;;;3.92
70819;BMP280;58439;51.046;13.692;2023-02-02T16:43:17;100597.66;;;3.89
70819;BMP280;58439;51.046;13.692;2023-02-02T16:45:48;100596.41;;;3.83
70819;BMP280;58439;51.046;13.692;2023-02-02T16:51:20;100612.88;;;3.72
70819;BMP280;58439;51.046;13.692;2023-02-02T16:54:18;100609.06;;;3.56
70819;BMP280;58439;51.046;13.692;2023-02-02T16:57:01;100612.19;;;3.49
70819;BMP280;58439;51.046;13.692;2023-02-02T17:00:38;100617.28;;;3.40
70819;BMP280;58439;51.046;13.692;2023-02-02T17:03:34;100621.66;;;3.39
70819;BMP280;58439;51.046;13.692;2023-02-02T17:06:31;100628.19;;;3.43
70819;BMP280;58439;51.046;13.692;2023-02-02T17:09:36;100638.25;;;3.37
70819;BMP280;58439;51.046;13.692;2023-02-02T17:15:10;100635.19;;;3.32
70819;BMP280;58439;51.046;13.692;2023-02-02T17:17:53;100645.59;;;3.20
70819;BMP280;58439;51.046;13.692;2023-02-02T17:25:40;100659.28;;;3.11
70819;BMP280;58439;51.046;13.692;2023-02-02T17:28:58;100658.41;;;3.22
70819;BMP280;58439;51.046;13.692;2023-02-02T17:43:58;100707.44;;;3.65
70819;BMP280;58439;51.046;13.692;2023-02-02T17:48:37;100714.97;;;3.78
70819;BMP280;58439;51.046;13.692;2023-02-02T17:51:16;100713.63;;;3.74
70819;BMP280;58439;51.046;13.692;2023-02-02T17:53:44;100732.22;;;3.68
70819;BMP280;58439;51.046;13.692;2023-02-02T18:02:18;100729.34;;;3.29
70819;BMP280;58439;51.046;13.692;2023-02-02T18:04:48;100724.00;;;3.21
70819;BMP280;58439;51.046;13.692;2023-02-02T18:11:28;100720.25;;;3.14
70819;BMP280;58439;51.046;13.692;2023-02-02T18:13:59;100727.88;;;3.15